createdAt,value
2023-01-07T00:01:31.896Z,100584.88
2023-01-07T00:04:00.989Z,100582.09
2023-01-07T00:06:35.209Z,100586.13
2023-01-07T00:09:02.866Z,100579.94
2023-01-07T00:11:32.776Z,100578.94
2023-01-07T00:14:01.049Z,100579.72
2023-01-07T00:16:30.487Z,100585.94
2023-01-07T00:18:59.078Z,100586.72
2023-01-07T00:21:27.440Z,100594.13
2023-01-07T00:24:00.519Z,100586.72
2023-01-07T00:26:30.561Z,100587.31
2023-01-07T00:28:58.648Z,100588.94
2023-01-07T00:31:28.351Z,100593.13
2023-01-07T00:33:55.472Z,100589.75
2023-01-07T00:36:25.057Z,100590.91
2023-01-07T00:39:00.189Z,100592.47
2023-01-07T00:41:27.491Z,100600.72
2023-01-07T00:43:54.946Z,100599.72
2023-01-07T00:46:21.958Z,100600.72
2023-01-07T00:48:49.032Z,100598.47
2023-01-07T00:51:17.869Z,100595.63
2023-01-07T00:53:44.745Z,100597.22
2023-01-07T00:56:14.565Z,100605.41
2023-01-07T00:58:41.944Z,100611.56
2023-01-07T01:01:09.632Z,100608.16
2023-01-07T01:03:36.715Z,100609.97
2023-01-07T01:06:08.954Z,100616.16
2023-01-07T01:08:36.014Z,100623.16
2023-01-07T01:11:07.714Z,100621.56
2023-01-07T01:13:35.518Z,100624.75
2023-01-07T01:16:07.284Z,100626.75
2023-01-07T01:18:34.115Z,100623.50
2023-01-07T01:21:05.302Z,100620.47
2023-01-07T01:23:32.098Z,100618.06
2023-01-07T01:26:11.769Z,100616.75
2023-01-07T01:28:38.957Z,100617.75
2023-01-07T01:31:08.344Z,100613.63
2023-01-07T01:34:01.198Z,100619.31
2023-01-07T01:36:28.302Z,100631.75
2023-01-07T01:38:57.805Z,100623.63
2023-01-07T01:41:27.113Z,100626.66
2023-01-07T01:43:55.488Z,100626.94
2023-01-07T01:46:51.419Z,100628.00
2023-01-07T01:49:26.311Z,100624.59
2023-01-07T01:52:03.142Z,100621.72
2023-01-07T01:54:30.764Z,100617.69
2023-01-07T01:57:03.012Z,100625.19
2023-01-07T01:59:33.411Z,100621.31
2023-01-07T02:02:04.094Z,100613.13
2023-01-07T02:04:31.758Z,100609.56
2023-01-07T02:07:01.212Z,100610.38
2023-01-07T02:09:29.989Z,100605.78
2023-01-07T02:11:56.912Z,100600.41
2023-01-07T02:14:45.958Z,100602.38
2023-01-07T02:17:28.435Z,100590.06
2023-01-07T02:20:01.095Z,100590.38
2023-01-07T02:23:08.795Z,100589.41
2023-01-07T02:25:42.035Z,100591.88
2023-01-07T02:28:27.175Z,100589.50
2023-01-07T02:31:21.993Z,100591.94
2023-01-07T02:33:58.238Z,100588.19
2023-01-07T02:36:54.058Z,100587.22
2023-01-07T02:39:29.947Z,100583.66
2023-01-07T02:42:48.124Z,100597.56
2023-01-07T02:45:32.027Z,100595.00
2023-01-07T02:48:06.860Z,100585.06
2023-01-07T02:50:34.302Z,100584.00
2023-01-07T02:53:01.031Z,100595.59
2023-01-07T02:55:46.187Z,100593.75
2023-01-07T02:58:36.837Z,100588.22
2023-01-07T03:01:34.196Z,100580.97
2023-01-07T03:04:35.972Z,100580.78
2023-01-07T03:07:13.182Z,100586.22
2023-01-07T03:09:54.971Z,100583.63
2023-01-07T03:12:34.307Z,100581.69
2023-01-07T03:15:21.991Z,100576.50
2023-01-07T03:18:13.510Z,100575.31
2023-01-07T03:20:42.496Z,100572.56
2023-01-07T03:23:13.325Z,100579.31
2023-01-07T03:25:46.584Z,100577.28
2023-01-07T03:28:15.941Z,100572.94
2023-01-07T03:30:43.524Z,100582.41
2023-01-07T03:33:25.693Z,100569.78
2023-01-07T03:35:56.603Z,100577.84
2023-01-07T03:38:24.954Z,100569.66
2023-01-07T03:40:53.116Z,100582.63
2023-01-07T03:43:22.672Z,100569.66
2023-01-07T03:45:52.096Z,100561.38
2023-01-07T03:48:19.509Z,100566.91
2023-01-07T03:50:48.571Z,100562.19
2023-01-07T03:53:15.497Z,100560.56
2023-01-07T03:55:45.289Z,100564.78
2023-01-07T03:58:12.095Z,100566.16
2023-01-07T04:00:39.021Z,100562.41
2023-01-07T04:03:13.860Z,100565.81
2023-01-07T04:05:44.591Z,100559.81
2023-01-07T04:08:12.338Z,100555.78
2023-01-07T04:10:39.905Z,100557.00
2023-01-07T04:13:06.781Z,100557.34
2023-01-07T04:15:33.533Z,100556.38
2023-01-07T04:18:00.272Z,100549.38
2023-01-07T04:20:28.095Z,100549.81
2023-01-07T04:22:54.890Z,100555.00
2023-01-07T04:25:21.670Z,100555.63
2023-01-07T04:27:49.291Z,100551.41
2023-01-07T04:30:16.214Z,100543.63
2023-01-07T04:32:43.203Z,100546.41
2023-01-07T04:35:10.677Z,100548.19
2023-01-07T04:37:38.289Z,100545.97
2023-01-07T04:40:06.339Z,100544.91
2023-01-07T04:42:35.521Z,100545.81
2023-01-07T04:45:04.305Z,100538.75
2023-01-07T04:47:31.775Z,100548.84
2023-01-07T04:49:59.197Z,100545.00
2023-01-07T04:52:30.275Z,100546.19
2023-01-07T04:54:59.292Z,100540.53
2023-01-07T04:57:26.071Z,100541.91
2023-01-07T04:59:53.491Z,100540.03
2023-01-07T05:02:20.465Z,100541.19
2023-01-07T05:04:48.072Z,100539.91
2023-01-07T05:07:16.730Z,100535.13
2023-01-07T05:09:43.753Z,100541.44
2023-01-07T05:12:11.252Z,100544.56
2023-01-07T05:14:38.747Z,100550.31
2023-01-07T05:17:05.671Z,100553.22
2023-01-07T05:19:32.705Z,100545.00
2023-01-07T05:22:01.010Z,100536.78
2023-01-07T05:24:28.337Z,100531.94
2023-01-07T05:26:55.213Z,100537.13
2023-01-07T05:29:22.845Z,100528.44
2023-01-07T05:31:49.693Z,100528.16
2023-01-07T05:34:16.638Z,100537.31
2023-01-07T05:36:45.457Z,100536.81
2023-01-07T05:39:12.326Z,100530.19
2023-01-07T05:41:39.114Z,100533.16
2023-01-07T05:44:06.622Z,100540.31
2023-01-07T05:46:33.484Z,100537.03
2023-01-07T05:49:00.347Z,100538.19
2023-01-07T05:51:27.096Z,100532.94
2023-01-07T05:53:53.949Z,100535.84
2023-01-07T05:56:20.655Z,100530.88
2023-01-07T05:58:47.426Z,100536.91
2023-01-07T06:01:14.273Z,100534.66
2023-01-07T06:03:41.250Z,100541.00
2023-01-07T06:06:08.105Z,100535.34
2023-01-07T06:08:38.980Z,100533.63
2023-01-07T06:11:07.076Z,100537.38
2023-01-07T06:13:34.103Z,100532.50
2023-01-07T06:16:09.066Z,100528.06
2023-01-07T06:18:36.718Z,100533.84
2023-01-07T06:21:04.091Z,100530.16
2023-01-07T06:23:31.530Z,100529.69
2023-01-07T06:25:58.441Z,100531.66
2023-01-07T06:28:25.186Z,100534.72
2023-01-07T06:30:51.949Z,100537.22
2023-01-07T06:33:18.746Z,100544.16
2023-01-07T06:35:46.350Z,100540.44
2023-01-07T06:38:13.158Z,100546.25
2023-01-07T06:40:39.997Z,100541.44
2023-01-07T06:43:06.765Z,100545.97
2023-01-07T06:45:33.495Z,100538.56
2023-01-07T06:48:00.385Z,100553.09
2023-01-07T06:50:27.378Z,100546.31
2023-01-07T06:52:54.268Z,100548.91
2023-01-07T06:55:20.982Z,100550.69
2023-01-07T06:57:47.824Z,100553.44
2023-01-07T07:00:15.118Z,100553.44
2023-01-07T07:02:41.879Z,100550.69
2023-01-07T07:05:08.793Z,100548.91
2023-01-07T07:07:35.761Z,100559.19
2023-01-07T07:10:07.306Z,100556.25
2023-01-07T07:12:35.448Z,100553.13
2023-01-07T07:15:02.545Z,100564.63
2023-01-07T07:17:30.773Z,100558.53
2023-01-07T07:19:57.560Z,100563.44
2023-01-07T07:22:24.281Z,100555.69
2023-01-07T07:24:51.053Z,100554.91
2023-01-07T07:27:17.797Z,100561.28
2023-01-07T07:29:44.831Z,100554.41
2023-01-07T07:32:11.630Z,100555.13
2023-01-07T07:34:38.391Z,100562.03
2023-01-07T07:37:06.437Z,100565.34
2023-01-07T07:39:34.095Z,100559.59
2023-01-07T07:42:04.214Z,100559.94
2023-01-07T07:44:31.126Z,100557.09
2023-01-07T07:46:57.979Z,100555.75
2023-01-07T07:49:24.823Z,100558.97
2023-01-07T07:51:51.807Z,100571.63
2023-01-07T07:54:18.628Z,100566.75
2023-01-07T07:56:45.408Z,100569.16
2023-01-07T07:59:12.267Z,100565.59
2023-01-07T08:01:39.200Z,100558.50
2023-01-07T08:04:06.106Z,100561.38
2023-01-07T08:06:34.332Z,100559.34
2023-01-07T08:09:01.492Z,100559.34
2023-01-07T08:11:28.711Z,100560.78
2023-01-07T08:13:55.475Z,100556.63
2023-01-07T08:16:22.533Z,100562.34
2023-01-07T08:18:49.331Z,100566.44
2023-01-07T08:21:16.227Z,100557.41
2023-01-07T08:23:43.184Z,100558.72
2023-01-07T08:26:09.959Z,100557.25
2023-01-07T08:28:38.221Z,100552.84
2023-01-07T08:31:07.066Z,100551.59
2023-01-07T08:33:37.759Z,100548.50
2023-01-07T08:36:09.398Z,100550.56
2023-01-07T08:38:36.279Z,100546.28
2023-01-07T08:41:04.087Z,100552.84
2023-01-07T08:43:30.885Z,100554.50
2023-01-07T08:45:57.667Z,100552.16
2023-01-07T08:48:24.498Z,100558.75
2023-01-07T08:50:53.098Z,100552.56
2023-01-07T08:53:20.859Z,100558.94
2023-01-07T08:55:47.642Z,100554.53
2023-01-07T08:58:14.636Z,100553.16
2023-01-07T09:00:42.165Z,100558.94
2023-01-07T09:03:09.152Z,100564.13
2023-01-07T09:05:36.138Z,100560.13
2023-01-07T09:08:04.336Z,100561.34
2023-01-07T09:10:32.292Z,100559.22
2023-01-07T09:13:00.147Z,100559.03
2023-01-07T09:15:26.960Z,100557.41
2023-01-07T09:17:53.781Z,100565.25
2023-01-07T09:20:20.674Z,100558.72
2023-01-07T09:22:47.701Z,100560.38
2023-01-07T09:25:14.556Z,100556.84
2023-01-07T09:27:42.429Z,100564.28
2023-01-07T09:30:09.783Z,100564.13
2023-01-07T09:32:36.651Z,100556.34
2023-01-07T09:35:04.281Z,100549.94
2023-01-07T09:37:31.157Z,100557.53
2023-01-07T09:39:57.950Z,100555.38
2023-01-07T09:42:44.395Z,100542.19
2023-01-07T09:45:34.601Z,100538.78
2023-01-07T09:48:06.805Z,100533.84
2023-01-07T09:51:02.679Z,100529.56
2023-01-07T09:53:43.177Z,100526.25
2023-01-07T09:56:23.468Z,100525.09
2023-01-07T09:58:50.507Z,100525.53
2023-01-07T10:01:22.157Z,100527.38
2023-01-07T10:04:10.059Z,100519.13
2023-01-07T10:06:51.474Z,100510.88
2023-01-07T10:09:36.089Z,100513.94
2023-01-07T10:12:11.760Z,100506.66
2023-01-07T10:15:03.151Z,100501.94
2023-01-07T10:18:00.824Z,100497.09
2023-01-07T10:20:44.024Z,100494.50
2023-01-07T10:23:12.649Z,100489.75
2023-01-07T10:25:46.892Z,100490.75
2023-01-07T10:28:36.262Z,100482.75
2023-01-07T10:31:05.922Z,100473.53
2023-01-07T10:33:34.005Z,100471.94
2023-01-07T10:36:28.845Z,100476.16
2023-01-07T10:39:20.853Z,100469.00
2023-01-07T10:42:29.144Z,100469.16
2023-01-07T10:45:16.591Z,100468.78
2023-01-07T10:48:05.903Z,100466.38
2023-01-07T10:50:56.427Z,100459.59
2023-01-07T10:53:41.320Z,100460.38
2023-01-07T10:56:46.596Z,100454.19
2023-01-07T10:59:18.125Z,100449.97
2023-01-07T11:01:52.918Z,100453.56
2023-01-07T11:04:20.347Z,100451.75
2023-01-07T11:07:11.271Z,100447.75
2023-01-07T11:09:42.497Z,100445.56
2023-01-07T11:12:41.743Z,100435.53
2023-01-07T11:15:36.932Z,100439.34
2023-01-07T11:18:20.242Z,100433.13
2023-01-07T11:20:54.854Z,100424.94
2023-01-07T11:23:34.348Z,100431.53
2023-01-07T11:26:09.386Z,100419.50
2023-01-07T11:28:40.873Z,100416.69
2023-01-07T11:31:07.663Z,100420.31
2023-01-07T11:34:01.860Z,100413.50
2023-01-07T11:36:41.774Z,100405.50
2023-01-07T11:39:18.541Z,100403.88
2023-01-07T11:41:55.981Z,100394.88
2023-01-07T11:44:23.268Z,100403.91
2023-01-07T11:46:50.310Z,100387.84
2023-01-07T11:49:30.589Z,100385.88
2023-01-07T11:51:58.814Z,100381.88
2023-01-07T11:54:34.582Z,100383.91
2023-01-07T11:57:25.401Z,100373.47
2023-01-07T12:00:13.163Z,100369.09
2023-01-07T12:02:40.334Z,100364.22
2023-01-07T12:05:22.887Z,100359.66
2023-01-07T12:07:51.910Z,100365.84
2023-01-07T12:10:29.028Z,100356.03
2023-01-07T12:12:56.106Z,100349.44
2023-01-07T12:15:30.855Z,100349.25
2023-01-07T12:18:20.158Z,100343.06
2023-01-07T12:21:18.308Z,100343.88
2023-01-07T12:24:03.965Z,100335.81
2023-01-07T12:26:47.254Z,100332.19
2023-01-07T12:29:29.083Z,100334.34
2023-01-07T12:32:26.948Z,100327.09
2023-01-07T12:35:14.217Z,100319.69
2023-01-07T12:37:53.955Z,100318.63
2023-01-07T12:40:48.188Z,100323.53
2023-01-07T12:43:17.721Z,100313.22
2023-01-07T12:45:49.783Z,100309.81
2023-01-07T12:48:34.686Z,100312.78
2023-01-07T12:51:24.212Z,100302.41
2023-01-07T12:54:14.255Z,100305.56
2023-01-07T12:56:59.335Z,100306.44
2023-01-07T12:59:46.040Z,100301.25
2023-01-07T13:02:33.274Z,100293.25
2023-01-07T13:05:06.002Z,100296.88
2023-01-07T13:07:46.203Z,100292.50
2023-01-07T13:10:28.481Z,100287.69
2023-01-07T13:13:02.854Z,100288.09
2023-01-07T13:15:36.032Z,100282.88
2023-01-07T13:18:11.519Z,100284.13
2023-01-07T13:21:05.214Z,100278.41
2023-01-07T13:23:50.339Z,100277.53
2023-01-07T13:26:52.199Z,100277.56
2023-01-07T13:29:34.022Z,100271.16
2023-01-07T13:32:23.134Z,100271.16
2023-01-07T13:35:03.324Z,100271.53
2023-01-07T13:37:36.123Z,100269.09
2023-01-07T13:40:48.958Z,100271.09
2023-01-07T13:43:39.963Z,100273.22
2023-01-07T13:46:16.383Z,100274.59
2023-01-07T13:48:50.416Z,100276.34
2023-01-07T13:51:28.523Z,100273.75
2023-01-07T13:53:55.426Z,100276.56
2023-01-07T13:56:25.960Z,100277.75
2023-01-07T13:58:57.605Z,100273.94
2023-01-07T14:01:26.764Z,100270.53
2023-01-07T14:04:09.236Z,100271.94
2023-01-07T14:06:42.012Z,100268.91
2023-01-07T14:09:11.135Z,100272.81
2023-01-07T14:11:41.940Z,100274.81
2023-01-07T14:14:13.071Z,100270.75
2023-01-07T14:16:48.404Z,100266.69
2023-01-07T14:19:21.191Z,100267.94
2023-01-07T14:22:15.606Z,100261.81
2023-01-07T14:25:12.533Z,100265.78
2023-01-07T14:28:00.864Z,100254.72
2023-01-07T14:30:43.776Z,100257.94
2023-01-07T14:33:23.694Z,100255.75
2023-01-07T14:36:03.427Z,100251.72
2023-01-07T14:38:30.151Z,100253.53
2023-01-07T14:41:03.199Z,100250.69
2023-01-07T14:43:42.394Z,100253.63
2023-01-07T14:46:22.097Z,100241.84
2023-01-07T14:49:04.134Z,100236.38
2023-01-07T14:51:51.736Z,100244.53
2023-01-07T14:54:28.308Z,100249.06
2023-01-07T14:57:19.378Z,100244.81
2023-01-07T15:00:12.480Z,100246.59
2023-01-07T15:03:10.003Z,100241.63
2023-01-07T15:05:39.620Z,100239.47
2023-01-07T15:08:29.880Z,100237.69
2023-01-07T15:11:17.792Z,100243.59
2023-01-07T15:14:40.600Z,100239.72
2023-01-07T15:17:11.158Z,100230.34
2023-01-07T15:19:39.807Z,100234.06
2023-01-07T15:22:34.637Z,100233.56
2023-01-07T15:25:29.264Z,100226.75
2023-01-07T15:31:41.333Z,100221.09
2023-01-07T15:34:16.734Z,100218.84
2023-01-07T15:36:51.792Z,100217.88
2023-01-07T15:39:29.305Z,100216.44
2023-01-07T15:41:57.747Z,100222.00
2023-01-07T15:44:41.562Z,100215.50
2023-01-07T15:47:41.368Z,100216.38
2023-01-07T15:50:29.320Z,100212.25
2023-01-07T15:53:01.820Z,100214.84
2023-01-07T15:55:40.945Z,100209.25
2023-01-07T15:58:32.737Z,100213.88
2023-01-07T16:01:02.521Z,100205.81
2023-01-07T16:03:30.705Z,100208.16
2023-01-07T16:05:59.819Z,100204.16
2023-01-07T16:08:30.818Z,100205.28
2023-01-07T16:11:05.816Z,100204.03
2023-01-07T16:13:36.883Z,100213.13
2023-01-07T16:16:06.598Z,100208.47
2023-01-07T16:18:33.913Z,100203.50
2023-01-07T16:21:12.784Z,100208.66
2023-01-07T16:23:40.840Z,100207.41
2023-01-07T16:26:36.406Z,100200.69
2023-01-07T16:29:14.758Z,100196.59
2023-01-07T16:31:41.884Z,100206.94
2023-01-07T16:34:34.058Z,100206.91
2023-01-07T16:37:04.532Z,100194.25
2023-01-07T16:39:34.992Z,100209.88
2023-01-07T16:42:20.736Z,100200.66
2023-01-07T16:44:49.617Z,100205.72
2023-01-07T16:47:36.404Z,100205.59
2023-01-07T16:50:20.212Z,100207.44
2023-01-07T16:52:55.846Z,100198.72
2023-01-07T16:55:44.322Z,100196.84
2023-01-07T16:58:32.489Z,100202.81
2023-01-07T17:01:02.425Z,100208.16
2023-01-07T17:03:33.432Z,100202.50
2023-01-07T17:06:14.966Z,100200.88
2023-01-07T17:09:30.065Z,100198.81
2023-01-07T17:12:01.138Z,100202.50
2023-01-07T17:14:48.133Z,100197.19
2023-01-07T17:17:17.941Z,100197.44
2023-01-07T17:19:57.759Z,100195.81
2023-01-07T17:22:38.288Z,100194.44
2023-01-07T17:25:30.495Z,100191.25
2023-01-07T17:27:59.786Z,100196.63
2023-01-07T17:30:34.591Z,100193.59
2023-01-07T17:33:01.745Z,100201.63
2023-01-07T17:35:54.631Z,100188.81
2023-01-07T17:38:21.717Z,100189.44
2023-01-07T17:40:48.956Z,100188.75
2023-01-07T17:43:34.734Z,100183.56
2023-01-07T17:46:02.188Z,100185.47
2023-01-07T17:48:29.329Z,100193.50
2023-01-07T17:50:57.266Z,100195.56
2023-01-07T17:53:42.511Z,100186.25
2023-01-07T17:56:09.482Z,100182.34
2023-01-07T17:58:37.747Z,100180.94
2023-01-07T18:01:13.209Z,100186.13
2023-01-07T18:03:40.476Z,100184.69
2023-01-07T18:06:18.916Z,100184.06
2023-01-07T18:08:47.177Z,100179.00
2023-01-07T18:11:36.193Z,100177.56
2023-01-07T18:14:07.209Z,100179.72
2023-01-07T18:16:34.681Z,100184.44
2023-01-07T18:19:01.606Z,100185.66
2023-01-07T18:21:28.522Z,100179.69
2023-01-07T18:24:09.963Z,100178.56
2023-01-07T18:27:00.507Z,100178.47
2023-01-07T18:29:30.363Z,100178.03
2023-01-07T18:31:57.384Z,100169.59
2023-01-07T18:34:24.259Z,100165.00
2023-01-07T18:36:51.056Z,100177.66
2023-01-07T18:39:29.862Z,100169.28
2023-01-07T18:41:56.614Z,100170.09
2023-01-07T18:44:24.607Z,100168.94
2023-01-07T18:46:51.665Z,100177.50
2023-01-07T18:49:18.803Z,100170.78
2023-01-07T18:51:48.741Z,100171.34
2023-01-07T18:54:19.055Z,100164.69
2023-01-07T18:56:49.805Z,100164.47
2023-01-07T18:59:16.706Z,100163.28
2023-01-07T19:01:49.737Z,100165.13
2023-01-07T19:04:22.261Z,100157.72
2023-01-07T19:06:49.064Z,100159.88
2023-01-07T19:09:19.128Z,100152.22
2023-01-07T19:11:47.389Z,100163.03
2023-01-07T19:14:16.098Z,100164.38
2023-01-07T19:16:43.452Z,100167.16
2023-01-07T19:19:47.851Z,100175.75
2023-01-07T19:22:20.231Z,100167.47
2023-01-07T19:24:47.000Z,100164.38
2023-01-07T19:27:13.909Z,100165.44
2023-01-07T19:29:40.760Z,100165.72
2023-01-07T19:32:10.367Z,100162.72
2023-01-07T19:34:39.819Z,100161.75
2023-01-07T19:37:09.969Z,100163.66
2023-01-07T19:39:37.455Z,100156.44
2023-01-07T19:42:04.780Z,100162.16
2023-01-07T19:44:34.432Z,100153.47
2023-01-07T19:47:01.233Z,100163.03
2023-01-07T19:49:29.906Z,100164.50
2023-01-07T19:51:56.883Z,100171.59
2023-01-07T19:54:23.663Z,100172.41
2023-01-07T19:56:50.471Z,100170.63
2023-01-07T19:59:17.351Z,100170.38
2023-01-07T20:01:45.365Z,100163.47
2023-01-07T20:04:12.478Z,100165.59
2023-01-07T20:06:39.383Z,100172.38
2023-01-07T20:09:10.820Z,100167.03
2023-01-07T20:11:42.525Z,100170.59
2023-01-07T20:14:10.650Z,100169.09
2023-01-07T20:16:39.684Z,100161.50
2023-01-07T20:19:07.507Z,100162.47
2023-01-07T20:21:34.477Z,100163.09
2023-01-07T20:24:01.607Z,100158.75
2023-01-07T20:26:33.183Z,100166.81
2023-01-07T20:29:00.978Z,100167.16
2023-01-07T20:31:29.680Z,100160.69
2023-01-07T20:33:57.683Z,100157.78
2023-01-07T20:36:28.056Z,100162.66
2023-01-07T20:38:55.093Z,100156.72
2023-01-07T20:41:27.126Z,100161.06
2023-01-07T20:43:59.381Z,100153.94
2023-01-07T20:46:28.504Z,100152.97
2023-01-07T20:48:56.670Z,100149.75
2023-01-07T20:51:23.598Z,100154.38
2023-01-07T20:53:50.658Z,100145.53
2023-01-07T20:56:21.971Z,100140.84
2023-01-07T20:58:49.675Z,100139.13
2023-01-07T21:01:19.713Z,100140.75
2023-01-07T21:03:47.071Z,100146.38
2023-01-07T21:06:17.489Z,100140.09
2023-01-07T21:08:45.776Z,100142.44
2023-01-07T21:11:14.347Z,100135.47
2023-01-07T21:13:41.464Z,100123.75
2023-01-07T21:16:08.540Z,100124.41
2023-01-07T21:18:35.705Z,100129.91
2023-01-07T21:21:08.489Z,100128.13
2023-01-07T21:23:35.459Z,100132.69
2023-01-07T21:26:02.218Z,100122.00
2023-01-07T21:28:28.954Z,100124.72
2023-01-07T21:30:55.795Z,100129.81
2023-01-07T21:33:22.555Z,100125.31
2023-01-07T21:35:49.303Z,100133.47
2023-01-07T21:38:16.094Z,100132.34
2023-01-07T21:40:42.923Z,100131.09
2023-01-07T21:43:09.673Z,100124.78
2023-01-07T21:45:37.300Z,100121.75
2023-01-07T21:48:04.225Z,100118.38
2023-01-07T21:50:30.974Z,100116.75
2023-01-07T21:52:57.845Z,100129.00
2023-01-07T21:55:24.774Z,100119.97
2023-01-07T21:57:51.501Z,100126.03
2023-01-07T22:00:18.412Z,100119.59
2023-01-07T22:02:45.285Z,100119.66
2023-01-07T22:05:12.214Z,100115.97
2023-01-07T22:07:39.735Z,100123.09
2023-01-07T22:10:06.915Z,100117.09
2023-01-07T22:12:34.256Z,100115.81
2023-01-07T22:15:01.390Z,100110.66
2023-01-07T22:17:31.005Z,100114.59
2023-01-07T22:19:57.791Z,100115.41
2023-01-07T22:22:24.563Z,100117.97
2023-01-07T22:24:51.342Z,100116.69
2023-01-07T22:27:18.637Z,100110.47
2023-01-07T22:29:45.524Z,100114.81
2023-01-07T22:32:26.632Z,100117.66
2023-01-07T22:34:53.409Z,100108.13
2023-01-07T22:37:23.991Z,100102.00
2023-01-07T22:39:57.769Z,100093.00
2023-01-07T22:42:57.984Z,100090.94
2023-01-07T22:45:40.949Z,100082.09
2023-01-07T22:48:09.904Z,100077.31
2023-01-07T22:50:37.297Z,100080.38
2023-01-07T22:53:04.425Z,100074.31
2023-01-07T22:55:32.757Z,100080.47
2023-01-07T22:58:01.362Z,100079.03
2023-01-07T23:00:54.833Z,100071.34
2023-01-07T23:03:23.170Z,100083.00
2023-01-07T23:05:51.395Z,100085.78
2023-01-07T23:08:18.480Z,100076.63
2023-01-07T23:10:45.629Z,100077.72
2023-01-07T23:13:12.481Z,100085.31
2023-01-07T23:15:40.082Z,100080.84
2023-01-07T23:18:08.948Z,100071.03
2023-01-07T23:20:39.373Z,100070.31
2023-01-07T23:23:06.222Z,100078.34
2023-01-07T23:28:18.406Z,100073.19
2023-01-07T23:30:45.422Z,100070.97
2023-01-07T23:33:12.541Z,100065.38
2023-01-07T23:35:39.354Z,100059.03
2023-01-07T23:38:06.387Z,100056.91
2023-01-07T23:40:33.245Z,100057.06
2023-01-07T23:42:59.969Z,100051.69
2023-01-07T23:45:26.808Z,100057.41
2023-01-07T23:47:53.693Z,100057.09
2023-01-07T23:50:20.484Z,100064.19
2023-01-07T23:52:47.241Z,100058.59
2023-01-07T23:55:14.038Z,100052.91
2023-01-07T23:57:40.766Z,100059.31
